Victory, Wisconsin
Current Conditions -  °F | °C
As of 6:35 PM on Monday 24 Nov 2014 (Local Time) from KY51 Reporting Station
Overcast Overcast  
Wind Chill:   Ceiling: 1500
Heat Index: 21°   Visibility: 10mi
Dew Point: 20°   Wind: 15mph
Humidity: 96%   Direction: 290°WNW
Pressure: 29.62"   Gusts: 20mph
Location:  43.4497°N, 91.1446°W
Report Text: KY51 250035Z AUTO 29013G17KT 10SM OVC015 M06/M07 A2962 RMK AO1 T10621068
Loading
Personal Weather Stations






























Interactive Weather Map New forecast layout! Learn more

10-Day Weather Forecast

Advertisements
Track Severe Weather on mobile